sensor_id;sensor_type;location;lat;lon;timestamp;P1;durP1;ratioP1;P2;durP2;ratioP2
54945;SDS011;40846;44.788;20.486;2024-01-30T00:02:11;135.73;;;67.70;;
54945;SDS011;40846;44.788;20.486;2024-01-30T00:04:37;122.60;;;62.70;;
54945;SDS011;40846;44.788;20.486;2024-01-30T00:07:03;140.27;;;70.38;;
54945;SDS011;40846;44.788;20.486;2024-01-30T00:09:30;132.00;;;66.65;;
54945;SDS011;40846;44.788;20.486;2024-01-30T00:11:56;134.75;;;65.30;;
54945;SDS011;40846;44.788;20.486;2024-01-30T00:14:22;112.13;;;57.22;;
54945;SDS011;40846;44.788;20.486;2024-01-30T00:16:48;141.43;;;66.72;;
54945;SDS011;40846;44.788;20.486;2024-01-30T00:19:14;132.65;;;62.90;;
54945;SDS011;40846;44.788;20.486;2024-01-30T00:21:41;111.50;;;53.78;;
54945;SDS011;40846;44.788;20.486;2024-01-30T00:24:07;102.20;;;51.40;;
54945;SDS011;40846;44.788;20.486;2024-01-30T00:26:33;96.55;;;47.90;;
54945;SDS011;40846;44.788;20.486;2024-01-30T00:28:59;107.65;;;51.85;;
54945;SDS011;40846;44.788;20.486;2024-01-30T00:31:25;109.30;;;49.25;;
54945;SDS011;40846;44.788;20.486;2024-01-30T00:33:51;92.28;;;44.58;;
54945;SDS011;40846;44.788;20.486;2024-01-30T00:36:17;81.25;;;42.70;;
54945;SDS011;40846;44.788;20.486;2024-01-30T00:38:43;83.45;;;41.05;;
54945;SDS011;40846;44.788;20.486;2024-01-30T00:41:10;82.47;;;39.80;;
54945;SDS011;40846;44.788;20.486;2024-01-30T00:43:36;83.65;;;39.72;;
54945;SDS011;40846;44.788;20.486;2024-01-30T00:46:03;77.85;;;40.25;;
54945;SDS011;40846;44.788;20.486;2024-01-30T00:48:29;93.47;;;43.17;;
54945;SDS011;40846;44.788;20.486;2024-01-30T00:50:55;124.90;;;51.00;;
54945;SDS011;40846;44.788;20.486;2024-01-30T00:53:21;80.50;;;37.95;;
54945;SDS011;40846;44.788;20.486;2024-01-30T00:55:47;83.65;;;40.97;;
54945;SDS011;40846;44.788;20.486;2024-01-30T00:58:13;76.47;;;34.67;;
54945;SDS011;40846;44.788;20.486;2024-01-30T01:00:39;64.78;;;34.17;;
54945;SDS011;40846;44.788;20.486;2024-01-30T01:03:05;59.30;;;31.38;;
54945;SDS011;40846;44.788;20.486;2024-01-30T01:05:31;66.45;;;32.40;;
54945;SDS011;40846;44.788;20.486;2024-01-30T01:07:58;65.20;;;32.55;;
54945;SDS011;40846;44.788;20.486;2024-01-30T01:10:24;64.35;;;32.72;;
54945;SDS011;40846;44.788;20.486;2024-01-30T01:12:50;66.93;;;31.95;;
54945;SDS011;40846;44.788;20.486;2024-01-30T01:15:16;64.43;;;33.08;;
54945;SDS011;40846;44.788;20.486;2024-01-30T01:17:42;64.72;;;30.92;;
54945;SDS011;40846;44.788;20.486;2024-01-30T01:20:08;58.83;;;32.55;;
54945;SDS011;40846;44.788;20.486;2024-01-30T01:22:35;69.93;;;32.42;;
54945;SDS011;40846;44.788;20.486;2024-01-30T01:25:03;60.78;;;32.60;;
54945;SDS011;40846;44.788;20.486;2024-01-30T01:27:32;68.10;;;34.25;;
54945;SDS011;40846;44.788;20.486;2024-01-30T01:29:59;68.47;;;33.17;;
54945;SDS011;40846;44.788;20.486;2024-01-30T01:32:25;73.50;;;32.33;;
54945;SDS011;40846;44.788;20.486;2024-01-30T01:34:51;64.97;;;32.78;;
54945;SDS011;40846;44.788;20.486;2024-01-30T01:37:18;58.13;;;30.42;;
54945;SDS011;40846;44.788;20.486;2024-01-30T01:39:46;63.20;;;33.45;;
54945;SDS011;40846;44.788;20.486;2024-01-30T01:42:12;64.78;;;32.00;;
54945;SDS011;40846;44.788;20.486;2024-01-30T01:44:39;77.78;;;35.05;;
54945;SDS011;40846;44.788;20.486;2024-01-30T01:47:05;65.15;;;32.58;;
54945;SDS011;40846;44.788;20.486;2024-01-30T01:49:31;63.08;;;33.58;;
54945;SDS011;40846;44.788;20.486;2024-01-30T01:51:58;64.80;;;33.90;;
54945;SDS011;40846;44.788;20.486;2024-01-30T01:54:25;68.50;;;33.85;;
54945;SDS011;40846;44.788;20.486;2024-01-30T01:56:51;64.07;;;35.47;;
54945;SDS011;40846;44.788;20.486;2024-01-30T01:59:18;65.88;;;35.30;;
54945;SDS011;40846;44.788;20.486;2024-01-30T02:01:45;63.47;;;34.00;;
54945;SDS011;40846;44.788;20.486;2024-01-30T02:04:14;70.53;;;34.30;;
54945;SDS011;40846;44.788;20.486;2024-01-30T02:06:40;67.75;;;33.78;;
54945;SDS011;40846;44.788;20.486;2024-01-30T02:09:06;65.32;;;33.58;;
54945;SDS011;40846;44.788;20.486;2024-01-30T02:11:34;64.47;;;34.42;;
54945;SDS011;40846;44.788;20.486;2024-01-30T02:14:03;73.57;;;35.10;;
54945;SDS011;40846;44.788;20.486;2024-01-30T02:16:29;70.55;;;35.72;;
54945;SDS011;40846;44.788;20.486;2024-01-30T02:18:56;78.88;;;37.60;;
54945;SDS011;40846;44.788;20.486;2024-01-30T02:21:22;73.35;;;37.10;;
54945;SDS011;40846;44.788;20.486;2024-01-30T02:23:48;71.93;;;37.67;;
54945;SDS011;40846;44.788;20.486;2024-01-30T02:26:14;81.18;;;39.17;;
54945;SDS011;40846;44.788;20.486;2024-01-30T02:28:41;77.30;;;39.38;;
54945;SDS011;40846;44.788;20.486;2024-01-30T02:31:07;77.00;;;39.28;;
54945;SDS011;40846;44.788;20.486;2024-01-30T02:33:33;89.00;;;41.70;;
54945;SDS011;40846;44.788;20.486;2024-01-30T02:35:59;82.35;;;42.45;;
54945;SDS011;40846;44.788;20.486;2024-01-30T02:38:26;83.60;;;45.63;;
54945;SDS011;40846;44.788;20.486;2024-01-30T02:40:53;86.80;;;45.03;;
54945;SDS011;40846;44.788;20.486;2024-01-30T02:43:20;88.50;;;46.35;;
54945;SDS011;40846;44.788;20.486;2024-01-30T02:45:46;88.85;;;46.53;;
54945;SDS011;40846;44.788;20.486;2024-01-30T02:48:12;97.03;;;48.15;;
54945;SDS011;40846;44.788;20.486;2024-01-30T02:50:38;102.38;;;48.47;;
54945;SDS011;40846;44.788;20.486;2024-01-30T02:53:04;90.38;;;49.53;;
54945;SDS011;40846;44.788;20.486;2024-01-30T02:55:30;98.85;;;50.80;;
54945;SDS011;40846;44.788;20.486;2024-01-30T02:57:56;96.43;;;53.33;;
54945;SDS011;40846;44.788;20.486;2024-01-30T03:00:23;110.82;;;54.85;;
54945;SDS011;40846;44.788;20.486;2024-01-30T03:02:49;102.97;;;55.97;;
54945;SDS011;40846;44.788;20.486;2024-01-30T03:05:15;108.07;;;55.45;;
54945;SDS011;40846;44.788;20.486;2024-01-30T03:07:41;106.72;;;56.75;;
54945;SDS011;40846;44.788;20.486;2024-01-30T03:10:07;113.00;;;57.92;;
54945;SDS011;40846;44.788;20.486;2024-01-30T03:12:34;106.47;;;58.00;;
54945;SDS011;40846;44.788;20.486;2024-01-30T03:15:00;109.25;;;56.70;;
54945;SDS011;40846;44.788;20.486;2024-01-30T03:17:26;113.82;;;59.95;;
54945;SDS011;40846;44.788;20.486;2024-01-30T03:19:52;111.88;;;58.78;;
54945;SDS011;40846;44.788;20.486;2024-01-30T03:22:18;108.05;;;55.17;;
54945;SDS011;40846;44.788;20.486;2024-01-30T03:24:44;108.95;;;54.53;;
54945;SDS011;40846;44.788;20.486;2024-01-30T03:27:10;95.43;;;54.03;;
54945;SDS011;40846;44.788;20.486;2024-01-30T03:29:37;107.40;;;54.05;;
54945;SDS011;40846;44.788;20.486;2024-01-30T03:32:03;99.43;;;51.78;;
54945;SDS011;40846;44.788;20.486;2024-01-30T03:34:29;93.22;;;50.70;;
54945;SDS011;40846;44.788;20.486;2024-01-30T03:36:55;113.28;;;59.45;;
54945;SDS011;40846;44.788;20.486;2024-01-30T03:39:21;120.30;;;66.72;;
54945;SDS011;40846;44.788;20.486;2024-01-30T03:41:47;99.93;;;54.33;;
54945;SDS011;40846;44.788;20.486;2024-01-30T03:44:13;98.72;;;51.45;;
54945;SDS011;40846;44.788;20.486;2024-01-30T03:46:39;89.97;;;50.17;;
54945;SDS011;40846;44.788;20.486;2024-01-30T03:49:05;91.13;;;50.33;;
54945;SDS011;40846;44.788;20.486;2024-01-30T03:51:31;94.35;;;50.20;;
54945;SDS011;40846;44.788;20.486;2024-01-30T03:53:58;85.05;;;47.75;;
54945;SDS011;40846;44.788;20.486;2024-01-30T03:56:24;92.80;;;48.10;;
54945;SDS011;40846;44.788;20.486;2024-01-30T03:58:50;86.13;;;48.97;;
54945;SDS011;40846;44.788;20.486;2024-01-30T04:01:17;83.55;;;46.80;;
54945;SDS011;40846;44.788;20.486;2024-01-30T04:03:43;91.40;;;47.83;;
54945;SDS011;40846;44.788;20.486;2024-01-30T04:06:09;87.85;;;49.38;;
54945;SDS011;40846;44.788;20.486;2024-01-30T04:08:36;89.35;;;48.33;;
54945;SDS011;40846;44.788;20.486;2024-01-30T04:11:03;96.53;;;50.40;;
54945;SDS011;40846;44.788;20.486;2024-01-30T04:13:30;98.60;;;49.33;;
54945;SDS011;40846;44.788;20.486;2024-01-30T04:15:57;100.15;;;52.67;;
54945;SDS011;40846;44.788;20.486;2024-01-30T04:18:23;95.07;;;53.60;;
54945;SDS011;40846;44.788;20.486;2024-01-30T04:20:49;97.97;;;50.67;;
54945;SDS011;40846;44.788;20.486;2024-01-30T04:23:15;86.63;;;48.47;;
54945;SDS011;40846;44.788;20.486;2024-01-30T04:25:41;91.45;;;47.80;;
54945;SDS011;40846;44.788;20.486;2024-01-30T04:28:07;92.35;;;47.65;;
54945;SDS011;40846;44.788;20.486;2024-01-30T04:30:33;93.93;;;48.45;;
54945;SDS011;40846;44.788;20.486;2024-01-30T04:32:59;90.90;;;47.38;;
54945;SDS011;40846;44.788;20.486;2024-01-30T04:35:25;89.63;;;47.97;;
54945;SDS011;40846;44.788;20.486;2024-01-30T04:37:52;93.20;;;47.60;;
54945;SDS011;40846;44.788;20.486;2024-01-30T04:40:18;91.40;;;46.05;;
54945;SDS011;40846;44.788;20.486;2024-01-30T04:42:44;87.18;;;45.88;;
54945;SDS011;40846;44.788;20.486;2024-01-30T04:45:10;85.90;;;46.92;;
54945;SDS011;40846;44.788;20.486;2024-01-30T04:47:36;80.75;;;45.20;;
54945;SDS011;40846;44.788;20.486;2024-01-30T04:50:03;85.30;;;43.40;;
54945;SDS011;40846;44.788;20.486;2024-01-30T04:52:30;89.50;;;45.55;;
54945;SDS011;40846;44.788;20.486;2024-01-30T04:54:56;81.07;;;44.17;;
54945;SDS011;40846;44.788;20.486;2024-01-30T04:57:22;77.53;;;43.53;;
54945;SDS011;40846;44.788;20.486;2024-01-30T04:59:48;75.72;;;43.92;;
54945;SDS011;40846;44.788;20.486;2024-01-30T05:02:14;78.72;;;44.60;;
54945;SDS011;40846;44.788;20.486;2024-01-30T05:04:41;76.65;;;42.30;;
54945;SDS011;40846;44.788;20.486;2024-01-30T05:07:07;81.28;;;44.92;;
54945;SDS011;40846;44.788;20.486;2024-01-30T05:09:33;70.72;;;42.30;;
54945;SDS011;40846;44.788;20.486;2024-01-30T05:11:59;72.82;;;41.22;;
54945;SDS011;40846;44.788;20.486;2024-01-30T05:14:25;72.15;;;42.22;;
54945;SDS011;40846;44.788;20.486;2024-01-30T05:16:51;77.63;;;42.67;;
54945;SDS011;40846;44.788;20.486;2024-01-30T05:19:17;73.65;;;41.55;;
54945;SDS011;40846;44.788;20.486;2024-01-30T05:21:44;77.20;;;42.17;;
54945;SDS011;40846;44.788;20.486;2024-01-30T05:24:10;80.85;;;44.00;;
54945;SDS011;40846;44.788;20.486;2024-01-30T05:26:36;71.28;;;41.35;;
54945;SDS011;40846;44.788;20.486;2024-01-30T05:29:02;80.15;;;44.17;;
54945;SDS011;40846;44.788;20.486;2024-01-30T05:31:28;74.38;;;41.15;;
54945;SDS011;40846;44.788;20.486;2024-01-30T05:33:55;87.88;;;44.17;;
54945;SDS011;40846;44.788;20.486;2024-01-30T05:36:21;78.45;;;42.47;;
54945;SDS011;40846;44.788;20.486;2024-01-30T05:38:47;77.25;;;43.60;;
54945;SDS011;40846;44.788;20.486;2024-01-30T05:41:13;84.10;;;42.28;;
54945;SDS011;40846;44.788;20.486;2024-01-30T05:43:39;76.93;;;42.17;;
54945;SDS011;40846;44.788;20.486;2024-01-30T05:46:06;82.80;;;44.70;;
54945;SDS011;40846;44.788;20.486;2024-01-30T05:48:32;88.35;;;45.72;;
54945;SDS011;40846;44.788;20.486;2024-01-30T05:51:00;80.25;;;45.05;;
54945;SDS011;40846;44.788;20.486;2024-01-30T05:53:26;82.22;;;45.80;;
54945;SDS011;40846;44.788;20.486;2024-01-30T05:55:52;82.03;;;44.78;;
54945;SDS011;40846;44.788;20.486;2024-01-30T05:58:18;85.28;;;45.85;;
54945;SDS011;40846;44.788;20.486;2024-01-30T06:00:44;80.28;;;42.75;;
54945;SDS011;40846;44.788;20.486;2024-01-30T06:03:11;81.18;;;43.72;;
54945;SDS011;40846;44.788;20.486;2024-01-30T06:05:37;76.57;;;43.00;;
54945;SDS011;40846;44.788;20.486;2024-01-30T06:08:03;75.25;;;43.60;;
54945;SDS011;40846;44.788;20.486;2024-01-30T06:10:29;78.40;;;40.35;;
54945;SDS011;40846;44.788;20.486;2024-01-30T06:12:55;77.65;;;41.63;;
54945;SDS011;40846;44.788;20.486;2024-01-30T06:15:21;74.18;;;41.35;;
54945;SDS011;40846;44.788;20.486;2024-01-30T06:17:47;70.75;;;39.70;;
54945;SDS011;40846;44.788;20.486;2024-01-30T06:20:13;72.70;;;40.95;;
54945;SDS011;40846;44.788;20.486;2024-01-30T06:22:39;73.32;;;38.28;;
54945;SDS011;40846;44.788;20.486;2024-01-30T06:25:05;71.55;;;39.35;;
54945;SDS011;40846;44.788;20.486;2024-01-30T06:27:32;71.53;;;35.80;;
54945;SDS011;40846;44.788;20.486;2024-01-30T06:29:58;66.80;;;37.08;;
54945;SDS011;40846;44.788;20.486;2024-01-30T06:32:24;66.13;;;36.88;;
54945;SDS011;40846;44.788;20.486;2024-01-30T06:34:50;69.10;;;36.25;;
54945;SDS011;40846;44.788;20.486;2024-01-30T06:37:16;73.85;;;37.95;;
54945;SDS011;40846;44.788;20.486;2024-01-30T06:39:42;68.13;;;35.80;;
54945;SDS011;40846;44.788;20.486;2024-01-30T06:42:09;59.55;;;34.38;;
54945;SDS011;40846;44.788;20.486;2024-01-30T06:44:36;68.90;;;34.97;;
54945;SDS011;40846;44.788;20.486;2024-01-30T06:47:02;69.25;;;36.15;;
54945;SDS011;40846;44.788;20.486;2024-01-30T06:49:28;66.55;;;36.53;;
54945;SDS011;40846;44.788;20.486;2024-01-30T06:51:54;66.53;;;36.30;;
54945;SDS011;40846;44.788;20.486;2024-01-30T06:54:20;65.50;;;34.95;;
54945;SDS011;40846;44.788;20.486;2024-01-30T06:56:47;64.25;;;36.45;;
54945;SDS011;40846;44.788;20.486;2024-01-30T06:59:13;63.75;;;34.17;;
54945;SDS011;40846;44.788;20.486;2024-01-30T07:01:39;72.55;;;37.95;;
54945;SDS011;40846;44.788;20.486;2024-01-30T07:04:05;59.90;;;32.90;;
54945;SDS011;40846;44.788;20.486;2024-01-30T07:06:31;53.63;;;30.23;;
54945;SDS011;40846;44.788;20.486;2024-01-30T07:09:00;59.35;;;31.35;;
54945;SDS011;40846;44.788;20.486;2024-01-30T07:11:26;53.78;;;29.45;;
54945;SDS011;40846;44.788;20.486;2024-01-30T07:13:55;49.60;;;28.85;;
54945;SDS011;40846;44.788;20.486;2024-01-30T07:16:21;54.88;;;29.42;;
54945;SDS011;40846;44.788;20.486;2024-01-30T07:18:48;49.00;;;27.35;;
54945;SDS011;40846;44.788;20.486;2024-01-30T07:21:16;52.38;;;27.58;;
54945;SDS011;40846;44.788;20.486;2024-01-30T07:23:42;41.95;;;24.00;;
54945;SDS011;40846;44.788;20.486;2024-01-30T07:26:08;45.08;;;26.38;;
54945;SDS011;40846;44.788;20.486;2024-01-30T07:28:35;47.95;;;25.65;;
54945;SDS011;40846;44.788;20.486;2024-01-30T07:31:01;44.72;;;22.40;;
54945;SDS011;40846;44.788;20.486;2024-01-30T07:33:27;44.30;;;22.73;;
54945;SDS011;40846;44.788;20.486;2024-01-30T07:35:53;44.33;;;23.08;;
54945;SDS011;40846;44.788;20.486;2024-01-30T07:38:19;46.40;;;26.75;;
54945;SDS011;40846;44.788;20.486;2024-01-30T07:40:45;39.92;;;22.63;;
54945;SDS011;40846;44.788;20.486;2024-01-30T07:43:12;44.22;;;24.58;;
54945;SDS011;40846;44.788;20.486;2024-01-30T07:45:38;44.78;;;25.40;;
54945;SDS011;40846;44.788;20.486;2024-01-30T07:48:05;40.63;;;22.05;;
54945;SDS011;40846;44.788;20.486;2024-01-30T07:50:31;43.92;;;22.63;;
54945;SDS011;40846;44.788;20.486;2024-01-30T07:52:59;45.63;;;23.08;;
54945;SDS011;40846;44.788;20.486;2024-01-30T07:55:25;40.95;;;21.80;;
54945;SDS011;40846;44.788;20.486;2024-01-30T07:57:54;38.15;;;22.73;;
54945;SDS011;40846;44.788;20.486;2024-01-30T08:00:22;41.28;;;21.88;;
54945;SDS011;40846;44.788;20.486;2024-01-30T08:02:49;39.22;;;22.85;;
54945;SDS011;40846;44.788;20.486;2024-01-30T08:05:15;39.05;;;21.48;;
54945;SDS011;40846;44.788;20.486;2024-01-30T08:07:41;36.15;;;21.50;;
54945;SDS011;40846;44.788;20.486;2024-01-30T08:10:08;35.92;;;19.75;;
54945;SDS011;40846;44.788;20.486;2024-01-30T08:12:34;42.42;;;22.55;;
54945;SDS011;40846;44.788;20.486;2024-01-30T08:15:00;41.60;;;23.40;;
54945;SDS011;40846;44.788;20.486;2024-01-30T08:17:26;39.28;;;21.75;;
54945;SDS011;40846;44.788;20.486;2024-01-30T08:19:52;42.78;;;21.60;;
54945;SDS011;40846;44.788;20.486;2024-01-30T08:22:18;45.60;;;23.52;;
54945;SDS011;40846;44.788;20.486;2024-01-30T08:24:44;45.75;;;23.08;;
54945;SDS011;40846;44.788;20.486;2024-01-30T08:27:10;49.33;;;25.08;;
54945;SDS011;40846;44.788;20.486;2024-01-30T08:29:37;45.53;;;25.70;;
54945;SDS011;40846;44.788;20.486;2024-01-30T08:32:06;43.00;;;23.45;;
54945;SDS011;40846;44.788;20.486;2024-01-30T08:34:33;41.95;;;21.88;;
54945;SDS011;40846;44.788;20.486;2024-01-30T08:36:59;45.20;;;22.33;;
54945;SDS011;40846;44.788;20.486;2024-01-30T08:39:25;42.20;;;21.92;;
54945;SDS011;40846;44.788;20.486;2024-01-30T08:41:51;35.63;;;20.27;;
54945;SDS011;40846;44.788;20.486;2024-01-30T08:44:17;40.45;;;21.20;;
54945;SDS011;40846;44.788;20.486;2024-01-30T08:46:46;36.92;;;21.45;;
54945;SDS011;40846;44.788;20.486;2024-01-30T08:49:15;33.25;;;19.58;;
54945;SDS011;40846;44.788;20.486;2024-01-30T08:51:42;30.60;;;17.20;;
54945;SDS011;40846;44.788;20.486;2024-01-30T08:54:10;32.75;;;17.17;;
54945;SDS011;40846;44.788;20.486;2024-01-30T08:56:36;28.98;;;15.05;;
54945;SDS011;40846;44.788;20.486;2024-01-30T08:59:02;30.95;;;17.95;;
54945;SDS011;40846;44.788;20.486;2024-01-30T09:01:29;25.90;;;15.82;;
54945;SDS011;40846;44.788;20.486;2024-01-30T09:03:57;30.20;;;16.33;;
54945;SDS011;40846;44.788;20.486;2024-01-30T09:06:23;22.92;;;14.68;;
54945;SDS011;40846;44.788;20.486;2024-01-30T09:08:53;25.23;;;13.52;;
54945;SDS011;40846;44.788;20.486;2024-01-30T09:11:19;21.15;;;13.55;;
54945;SDS011;40846;44.788;20.486;2024-01-30T09:13:45;21.50;;;12.70;;
54945;SDS011;40846;44.788;20.486;2024-01-30T09:16:11;18.15;;;12.50;;
54945;SDS011;40846;44.788;20.486;2024-01-30T09:18:37;22.17;;;12.98;;
54945;SDS011;40846;44.788;20.486;2024-01-30T09:21:03;21.55;;;11.73;;
54945;SDS011;40846;44.788;20.486;2024-01-30T09:23:29;20.23;;;11.32;;
54945;SDS011;40846;44.788;20.486;2024-01-30T09:25:55;17.27;;;10.73;;
54945;SDS011;40846;44.788;20.486;2024-01-30T09:28:21;15.05;;;10.75;;
54945;SDS011;40846;44.788;20.486;2024-01-30T09:30:47;15.73;;;10.68;;
54945;SDS011;40846;44.788;20.486;2024-01-30T09:33:13;17.27;;;11.32;;
54945;SDS011;40846;44.788;20.486;2024-01-30T09:35:39;20.60;;;11.40;;
54945;SDS011;40846;44.788;20.486;2024-01-30T09:38:05;18.65;;;10.98;;
54945;SDS011;40846;44.788;20.486;2024-01-30T09:40:31;15.27;;;9.75;;
54945;SDS011;40846;44.788;20.486;2024-01-30T09:42:57;20.08;;;10.77;;
54945;SDS011;40846;44.788;20.486;2024-01-30T09:45:27;21.63;;;11.13;;
54945;SDS011;40846;44.788;20.486;2024-01-30T09:47:53;16.13;;;10.02;;
54945;SDS011;40846;44.788;20.486;2024-01-30T09:50:19;16.65;;;10.18;;
54945;SDS011;40846;44.788;20.486;2024-01-30T09:52:46;19.33;;;10.57;;
54945;SDS011;40846;44.788;20.486;2024-01-30T09:55:12;16.25;;;10.75;;
54945;SDS011;40846;44.788;20.486;2024-01-30T09:57:39;17.50;;;11.20;;
54945;SDS011;40846;44.788;20.486;2024-01-30T10:00:06;15.05;;;9.10;;
54945;SDS011;40846;44.788;20.486;2024-01-30T10:02:33;13.90;;;8.38;;
54945;SDS011;40846;44.788;20.486;2024-01-30T10:05:00;15.57;;;8.80;;
54945;SDS011;40846;44.788;20.486;2024-01-30T10:07:26;20.48;;;10.95;;
54945;SDS011;40846;44.788;20.486;2024-01-30T10:09:52;16.30;;;9.48;;
54945;SDS011;40846;44.788;20.486;2024-01-30T10:12:20;15.18;;;9.70;;
54945;SDS011;40846;44.788;20.486;2024-01-30T10:14:46;21.17;;;12.45;;
54945;SDS011;40846;44.788;20.486;2024-01-30T10:17:12;19.52;;;11.18;;
54945;SDS011;40846;44.788;20.486;2024-01-30T10:19:44;19.38;;;12.32;;
54945;SDS011;40846;44.788;20.486;2024-01-30T10:22:11;21.60;;;11.40;;
54945;SDS011;40846;44.788;20.486;2024-01-30T10:24:37;16.52;;;8.45;;
54945;SDS011;40846;44.788;20.486;2024-01-30T10:27:03;14.52;;;9.30;;
54945;SDS011;40846;44.788;20.486;2024-01-30T10:29:31;10.98;;;7.63;;
54945;SDS011;40846;44.788;20.486;2024-01-30T10:32:01;11.27;;;8.35;;
54945;SDS011;40846;44.788;20.486;2024-01-30T10:34:27;17.10;;;8.27;;
54945;SDS011;40846;44.788;20.486;2024-01-30T10:41:51;14.10;;;8.52;;
54945;SDS011;40846;44.788;20.486;2024-01-30T10:44:20;12.70;;;7.45;;
54945;SDS011;40846;44.788;20.486;2024-01-30T10:46:50;15.88;;;10.07;;
54945;SDS011;40846;44.788;20.486;2024-01-30T10:49:17;17.73;;;8.65;;
54945;SDS011;40846;44.788;20.486;2024-01-30T10:51:43;16.08;;;7.55;;
54945;SDS011;40846;44.788;20.486;2024-01-30T10:54:09;12.45;;;7.60;;
54945;SDS011;40846;44.788;20.486;2024-01-30T10:56:36;14.32;;;8.05;;
54945;SDS011;40846;44.788;20.486;2024-01-30T10:59:03;18.65;;;7.70;;
54945;SDS011;40846;44.788;20.486;2024-01-30T11:01:29;10.88;;;6.78;;
54945;SDS011;40846;44.788;20.486;2024-01-30T11:03:56;10.55;;;7.25;;
54945;SDS011;40846;44.788;20.486;2024-01-30T11:06:22;11.35;;;7.35;;
54945;SDS011;40846;44.788;20.486;2024-01-30T11:09:04;13.98;;;8.00;;
54945;SDS011;40846;44.788;20.486;2024-01-30T11:11:50;14.98;;;7.15;;
54945;SDS011;40846;44.788;20.486;2024-01-30T11:14:24;12.25;;;7.72;;
54945;SDS011;40846;44.788;20.486;2024-01-30T11:16:51;11.13;;;6.95;;
54945;SDS011;40846;44.788;20.486;2024-01-30T11:19:22;14.45;;;7.25;;
54945;SDS011;40846;44.788;20.486;2024-01-30T11:21:50;13.13;;;6.25;;
54945;SDS011;40846;44.788;20.486;2024-01-30T11:24:19;10.25;;;6.60;;
54945;SDS011;40846;44.788;20.486;2024-01-30T11:26:48;13.65;;;6.93;;
54945;SDS011;40846;44.788;20.486;2024-01-30T11:29:27;13.93;;;7.30;;
54945;SDS011;40846;44.788;20.486;2024-01-30T11:31:57;10.90;;;6.78;;
54945;SDS011;40846;44.788;20.486;2024-01-30T11:34:23;12.70;;;6.15;;
54945;SDS011;40846;44.788;20.486;2024-01-30T11:36:53;11.57;;;6.45;;
54945;SDS011;40846;44.788;20.486;2024-01-30T11:39:24;11.48;;;6.03;;
54945;SDS011;40846;44.788;20.486;2024-01-30T11:41:50;24.38;;;10.52;;
54945;SDS011;40846;44.788;20.486;2024-01-30T11:44:18;17.45;;;8.50;;
54945;SDS011;40846;44.788;20.486;2024-01-30T11:46:45;21.30;;;8.35;;
54945;SDS011;40846;44.788;20.486;2024-01-30T11:49:11;18.00;;;8.55;;
54945;SDS011;40846;44.788;20.486;2024-01-30T11:51:38;38.55;;;15.75;;
54945;SDS011;40846;44.788;20.486;2024-01-30T11:54:04;12.40;;;7.68;;
54945;SDS011;40846;44.788;20.486;2024-01-30T11:56:30;88.13;;;31.70;;
54945;SDS011;40846;44.788;20.486;2024-01-30T11:58:56;20.55;;;9.07;;
54945;SDS011;40846;44.788;20.486;2024-01-30T12:01:22;16.27;;;8.25;;
54945;SDS011;40846;44.788;20.486;2024-01-30T12:03:51;10.60;;;6.68;;
54945;SDS011;40846;44.788;20.486;2024-01-30T12:06:17;13.80;;;6.93;;
54945;SDS011;40846;44.788;20.486;2024-01-30T12:08:55;13.27;;;7.38;;
54945;SDS011;40846;44.788;20.486;2024-01-30T12:11:21;15.57;;;8.10;;
54945;SDS011;40846;44.788;20.486;2024-01-30T12:13:47;15.57;;;8.00;;
54945;SDS011;40846;44.788;20.486;2024-01-30T12:16:14;15.13;;;7.22;;
54945;SDS011;40846;44.788;20.486;2024-01-30T12:18:40;17.17;;;8.05;;
54945;SDS011;40846;44.788;20.486;2024-01-30T12:21:06;13.80;;;7.68;;
54945;SDS011;40846;44.788;20.486;2024-01-30T12:23:34;18.25;;;10.27;;
54945;SDS011;40846;44.788;20.486;2024-01-30T12:26:01;33.33;;;20.85;;
54945;SDS011;40846;44.788;20.486;2024-01-30T12:28:28;25.27;;;13.88;;
54945;SDS011;40846;44.788;20.486;2024-01-30T12:31:00;13.70;;;7.90;;
54945;SDS011;40846;44.788;20.486;2024-01-30T12:33:30;14.48;;;7.88;;
54945;SDS011;40846;44.788;20.486;2024-01-30T12:35:56;22.45;;;8.43;;
54945;SDS011;40846;44.788;20.486;2024-01-30T12:38:23;12.80;;;6.95;;
54945;SDS011;40846;44.788;20.486;2024-01-30T12:40:53;19.55;;;6.68;;
54945;SDS011;40846;44.788;20.486;2024-01-30T12:43:21;17.10;;;7.63;;
54945;SDS011;40846;44.788;20.486;2024-01-30T12:45:47;12.60;;;7.00;;
54945;SDS011;40846;44.788;20.486;2024-01-30T12:48:13;12.32;;;7.22;;
54945;SDS011;40846;44.788;20.486;2024-01-30T12:50:40;18.70;;;6.97;;
54945;SDS011;40846;44.788;20.486;2024-01-30T12:53:07;14.93;;;6.68;;
54945;SDS011;40846;44.788;20.486;2024-01-30T12:55:34;13.75;;;6.70;;
54945;SDS011;40846;44.788;20.486;2024-01-30T12:58:00;12.02;;;7.05;;
54945;SDS011;40846;44.788;20.486;2024-01-30T13:00:26;14.98;;;8.38;;
54945;SDS011;40846;44.788;20.486;2024-01-30T13:02:52;13.93;;;7.68;;
54945;SDS011;40846;44.788;20.486;2024-01-30T13:05:18;19.33;;;8.35;;
54945;SDS011;40846;44.788;20.486;2024-01-30T13:07:44;17.30;;;8.50;;
54945;SDS011;40846;44.788;20.486;2024-01-30T13:10:10;13.85;;;8.07;;
54945;SDS011;40846;44.788;20.486;2024-01-30T13:12:36;21.63;;;9.45;;
54945;SDS011;40846;44.788;20.486;2024-01-30T13:15:03;16.55;;;10.23;;
54945;SDS011;40846;44.788;20.486;2024-01-30T13:17:30;17.33;;;9.75;;
54945;SDS011;40846;44.788;20.486;2024-01-30T13:19:56;10.65;;;5.80;;
54945;SDS011;40846;44.788;20.486;2024-01-30T13:22:23;12.88;;;6.45;;
54945;SDS011;40846;44.788;20.486;2024-01-30T13:24:49;13.38;;;7.38;;
54945;SDS011;40846;44.788;20.486;2024-01-30T13:27:15;12.52;;;6.47;;
54945;SDS011;40846;44.788;20.486;2024-01-30T13:29:42;13.57;;;7.00;;
54945;SDS011;40846;44.788;20.486;2024-01-30T13:32:08;11.95;;;6.40;;
54945;SDS011;40846;44.788;20.486;2024-01-30T13:34:34;10.00;;;5.68;;
54945;SDS011;40846;44.788;20.486;2024-01-30T13:37:00;9.85;;;5.68;;
54945;SDS011;40846;44.788;20.486;2024-01-30T13:39:28;11.10;;;6.47;;
54945;SDS011;40846;44.788;20.486;2024-01-30T13:41:56;12.18;;;6.45;;
54945;SDS011;40846;44.788;20.486;2024-01-30T13:44:22;11.10;;;6.78;;
54945;SDS011;40846;44.788;20.486;2024-01-30T13:46:51;13.30;;;6.45;;
54945;SDS011;40846;44.788;20.486;2024-01-30T13:49:17;12.80;;;7.60;;
54945;SDS011;40846;44.788;20.486;2024-01-30T13:51:43;12.43;;;7.00;;
54945;SDS011;40846;44.788;20.486;2024-01-30T13:54:09;14.00;;;6.93;;
54945;SDS011;40846;44.788;20.486;2024-01-30T13:56:35;18.25;;;7.13;;
54945;SDS011;40846;44.788;20.486;2024-01-30T13:59:01;12.20;;;7.72;;
54945;SDS011;40846;44.788;20.486;2024-01-30T14:01:30;16.48;;;8.13;;
54945;SDS011;40846;44.788;20.486;2024-01-30T14:03:56;17.50;;;7.55;;
54945;SDS011;40846;44.788;20.486;2024-01-30T14:06:22;16.20;;;8.43;;
54945;SDS011;40846;44.788;20.486;2024-01-30T14:08:48;12.10;;;7.25;;
54945;SDS011;40846;44.788;20.486;2024-01-30T14:11:16;14.70;;;7.55;;
54945;SDS011;40846;44.788;20.486;2024-01-30T14:13:42;11.60;;;7.25;;